createdAt,value
2018-09-22T00:01:40.308Z,1.30
2018-09-22T00:04:09.427Z,1.83
2018-09-22T00:06:38.603Z,1.50
2018-09-22T00:09:09.262Z,1.72
2018-09-22T00:11:38.443Z,1.60
2018-09-22T00:14:07.731Z,1.77
2018-09-22T00:16:37.287Z,1.97
2018-09-22T00:19:06.683Z,1.80
2018-09-22T00:21:35.850Z,1.90
2018-09-22T00:24:05.180Z,1.98
2018-09-22T00:26:34.376Z,2.10
2018-09-22T00:29:03.541Z,2.00
2018-09-22T00:31:32.696Z,2.10
2018-09-22T00:34:01.884Z,2.07
2018-09-22T00:36:31.081Z,1.82
2018-09-22T00:39:00.236Z,2.10
2018-09-22T00:41:29.407Z,2.17
2018-09-22T00:43:58.876Z,2.07
2018-09-22T00:46:28.028Z,2.13
2018-09-22T00:48:57.200Z,1.87
2018-09-22T00:51:26.408Z,2.07
2018-09-22T00:53:55.560Z,1.82
2018-09-22T00:56:24.727Z,2.30
2018-09-22T00:58:53.888Z,1.97
2018-09-22T01:01:23.141Z,2.20
2018-09-22T01:03:52.341Z,1.87
2018-09-22T01:06:21.472Z,1.80
2018-09-22T01:08:50.603Z,1.90
2018-09-22T01:11:19.997Z,1.70
2018-09-22T01:13:49.357Z,1.70
2018-09-22T01:16:18.581Z,2.40
2018-09-22T01:18:47.731Z,2.05
2018-09-22T01:21:16.884Z,1.97
2018-09-22T01:23:46.013Z,2.37
2018-09-22T01:26:15.175Z,2.30
2018-09-22T01:28:44.322Z,2.50
2018-09-22T01:31:13.487Z,2.30
2018-09-22T01:33:42.936Z,2.37
2018-09-22T01:36:12.177Z,2.50
2018-09-22T01:38:41.317Z,2.70
2018-09-22T01:41:10.483Z,2.30
2018-09-22T01:43:39.669Z,2.70
2018-09-22T01:46:08.893Z,2.83
2018-09-22T01:48:38.084Z,2.80
2018-09-22T01:51:07.204Z,2.80
2018-09-22T01:53:36.364Z,2.75
2018-09-22T01:56:05.516Z,3.20
2018-09-22T01:58:34.678Z,3.20
2018-09-22T02:01:03.862Z,3.15
2018-09-22T02:03:33.043Z,3.10
2018-09-22T02:06:02.239Z,3.43
2018-09-22T02:08:31.708Z,3.23
2018-09-22T02:11:00.890Z,3.17
2018-09-22T02:13:30.055Z,3.20
2018-09-22T02:15:59.234Z,2.70
2018-09-22T02:18:28.432Z,3.20
2018-09-22T02:20:57.628Z,3.30
2018-09-22T02:23:26.881Z,3.20
2018-09-22T02:25:56.040Z,3.00
2018-09-22T02:28:25.198Z,2.73
2018-09-22T02:30:54.329Z,3.45
2018-09-22T02:33:23.480Z,2.60
2018-09-22T02:35:52.672Z,2.70
2018-09-22T02:38:21.886Z,2.70
2018-09-22T02:40:51.108Z,3.07
2018-09-22T02:43:20.252Z,2.95
2018-09-22T02:45:49.515Z,2.60
2018-09-22T02:48:18.719Z,3.10
2018-09-22T02:50:47.926Z,3.67
2018-09-22T02:53:17.132Z,3.30
2018-09-22T02:55:46.325Z,2.70
2018-09-22T02:58:15.658Z,2.77
2018-09-22T03:00:44.789Z,2.60
2018-09-22T03:03:13.924Z,2.53
2018-09-22T03:05:43.142Z,2.70
2018-09-22T03:08:12.575Z,2.10
2018-09-22T03:10:41.675Z,2.23
2018-09-22T03:13:10.847Z,2.20
2018-09-22T03:15:40.046Z,2.00
2018-09-22T03:18:09.204Z,2.00
2018-09-22T03:20:38.364Z,1.90
2018-09-22T03:23:07.677Z,2.17
2018-09-22T03:25:36.880Z,1.92
2018-09-22T03:28:06.070Z,2.53
2018-09-22T03:30:35.343Z,2.03
2018-09-22T03:33:04.505Z,2.07
2018-09-22T03:35:33.808Z,2.43
2018-09-22T03:38:02.997Z,1.97
2018-09-22T03:40:32.220Z,2.50
2018-09-22T03:43:01.724Z,2.05
2018-09-22T03:45:30.905Z,2.30
2018-09-22T03:48:00.141Z,2.37
2018-09-22T03:50:29.306Z,1.95
2018-09-22T03:52:58.712Z,2.33
2018-09-22T03:55:27.873Z,2.05
2018-09-22T03:57:57.053Z,2.30
2018-09-22T04:00:26.260Z,2.47
2018-09-22T04:02:55.445Z,2.27
2018-09-22T04:05:24.651Z,2.40
2018-09-22T04:07:53.844Z,2.30
2018-09-22T04:10:23.103Z,2.40
2018-09-22T04:12:52.317Z,2.60
2018-09-22T04:15:21.611Z,2.23
2018-09-22T04:17:50.788Z,2.20
2018-09-22T04:20:19.963Z,2.50
2018-09-22T04:22:49.196Z,2.20
2018-09-22T04:25:18.372Z,2.20
2018-09-22T04:27:47.614Z,2.23
2018-09-22T04:30:16.806Z,2.07
2018-09-22T04:32:45.972Z,2.47
2018-09-22T04:35:15.137Z,2.40
2018-09-22T04:37:44.280Z,2.87
2018-09-22T04:40:13.556Z,2.62
2018-09-22T04:42:42.718Z,2.30
2018-09-22T04:45:11.857Z,2.40
2018-09-22T04:47:41.007Z,2.53
2018-09-22T04:50:10.267Z,2.70
2018-09-22T04:52:39.460Z,2.60
2018-09-22T04:55:08.640Z,2.70
2018-09-22T04:57:38.902Z,3.20
2018-09-22T05:00:08.128Z,2.60
2018-09-22T05:02:37.300Z,2.83
2018-09-22T05:05:06.733Z,2.80
2018-09-22T05:07:35.873Z,2.60
2018-09-22T05:10:05.045Z,2.33
2018-09-22T05:12:34.268Z,2.47
2018-09-22T05:15:03.493Z,3.03
2018-09-22T05:17:32.680Z,2.72
2018-09-22T05:20:01.852Z,2.87
2018-09-22T05:22:31.010Z,2.57
2018-09-22T05:25:00.152Z,3.10
2018-09-22T05:27:29.351Z,2.60
2018-09-22T05:29:59.648Z,2.65
2018-09-22T05:32:28.785Z,2.30
2018-09-22T05:34:57.912Z,2.60
2018-09-22T05:37:27.101Z,2.60
2018-09-22T05:39:56.278Z,2.73
2018-09-22T05:42:25.439Z,3.40
2018-09-22T05:44:54.628Z,2.70
2018-09-22T05:47:23.737Z,2.77
2018-09-22T05:49:52.893Z,3.05
2018-09-22T05:52:22.032Z,2.77
2018-09-22T05:54:51.204Z,2.73
2018-09-22T05:57:20.324Z,2.92
2018-09-22T05:59:49.638Z,2.62
2018-09-22T06:02:18.787Z,2.53
2018-09-22T06:04:47.897Z,2.63
2018-09-22T06:07:17.042Z,2.47
2018-09-22T06:09:46.206Z,2.70
2018-09-22T06:12:15.450Z,2.90
2018-09-22T06:14:44.568Z,2.70
2018-09-22T06:17:14.116Z,2.43
2018-09-22T06:19:43.265Z,2.50
2018-09-22T06:22:12.412Z,2.20
2018-09-22T06:24:41.568Z,2.83
2018-09-22T06:27:10.679Z,3.05
2018-09-22T06:29:39.852Z,2.70
2018-09-22T06:32:09.642Z,2.40
2018-09-22T06:34:39.044Z,2.80
2018-09-22T06:37:08.241Z,2.57
2018-09-22T06:39:37.380Z,2.55
2018-09-22T06:42:07.573Z,2.50
2018-09-22T06:44:36.764Z,2.67
2018-09-22T06:47:05.972Z,2.97
2018-09-22T06:49:35.439Z,2.93
2018-09-22T06:52:04.651Z,2.60
2018-09-22T06:54:33.873Z,2.40
2018-09-22T06:57:03.065Z,2.73
2018-09-22T06:59:32.353Z,3.40
2018-09-22T07:02:01.558Z,3.00
2018-09-22T07:04:31.016Z,3.20
2018-09-22T07:07:00.158Z,2.80
2018-09-22T07:09:29.319Z,2.80
2018-09-22T07:11:58.585Z,2.70
2018-09-22T07:14:27.703Z,3.07
2018-09-22T07:16:56.933Z,2.60
2018-09-22T07:19:26.341Z,3.10
2018-09-22T07:22:00.887Z,3.00
2018-09-22T07:24:30.033Z,2.50
2018-09-22T07:26:59.179Z,2.62
2018-09-22T07:29:28.638Z,3.07
2018-09-22T07:31:58.857Z,3.13
2018-09-22T07:34:28.070Z,3.07
2018-09-22T07:36:57.268Z,2.90
2018-09-22T07:39:26.450Z,2.70
2018-09-22T07:41:55.696Z,2.40
2018-09-22T07:44:24.844Z,2.80
2018-09-22T07:46:54.089Z,2.47
2018-09-22T07:49:23.272Z,2.83
2018-09-22T07:51:52.413Z,2.22
2018-09-22T07:54:21.551Z,2.77
2018-09-22T07:56:50.847Z,3.07
2018-09-22T07:59:20.082Z,2.87
2018-09-22T08:01:49.533Z,2.93
2018-09-22T08:04:18.680Z,3.17
2018-09-22T08:06:48.133Z,3.43
2018-09-22T08:09:17.373Z,2.55
2018-09-22T08:11:46.940Z,2.73
2018-09-22T08:14:16.353Z,2.30
2018-09-22T08:16:45.509Z,2.63
2018-09-22T08:19:14.681Z,3.30
2018-09-22T08:21:43.875Z,2.92
2018-09-22T08:24:13.072Z,2.87
2018-09-22T08:26:42.349Z,3.03
2018-09-22T08:29:11.678Z,2.67
2018-09-22T08:31:40.867Z,2.67
2018-09-22T08:34:10.026Z,3.10
2018-09-22T08:36:39.259Z,2.70
2018-09-22T08:39:10.068Z,2.73
2018-09-22T08:41:39.249Z,2.90
2018-09-22T08:44:08.473Z,3.50
2018-09-22T08:46:38.055Z,2.87
2018-09-22T08:49:07.374Z,2.60
2018-09-22T08:51:36.797Z,2.52
2018-09-22T08:54:06.082Z,2.70
2018-09-22T08:56:35.309Z,2.30
2018-09-22T08:59:04.487Z,2.43
2018-09-22T09:01:34.785Z,3.17
2018-09-22T09:04:03.992Z,2.93
2018-09-22T09:06:34.231Z,2.50
2018-09-22T09:09:03.464Z,2.50
2018-09-22T09:11:32.671Z,2.40
2018-09-22T09:14:01.859Z,2.73
2018-09-22T09:16:31.024Z,2.40
2018-09-22T09:19:00.362Z,2.58
2018-09-22T09:21:29.502Z,2.65
2018-09-22T09:23:58.668Z,2.60
2018-09-22T09:26:28.280Z,2.43
2018-09-22T09:28:57.387Z,2.30
2018-09-22T09:31:26.534Z,2.07
2018-09-22T09:33:55.727Z,2.40
2018-09-22T09:36:24.927Z,2.73
2018-09-22T09:38:57.932Z,2.30
2018-09-22T09:41:27.060Z,2.33
2018-09-22T09:43:56.207Z,2.50
2018-09-22T09:46:25.510Z,2.43
2018-09-22T09:48:54.949Z,2.30
2018-09-22T09:51:24.223Z,2.25
2018-09-22T09:53:53.414Z,2.17
2018-09-22T09:56:22.552Z,2.37
2018-09-22T09:58:51.700Z,2.90
2018-09-22T10:01:21.161Z,3.07
2018-09-22T10:03:50.315Z,2.20
2018-09-22T10:06:19.473Z,2.15
2018-09-22T10:08:48.721Z,2.10
2018-09-22T10:11:17.928Z,2.50
2018-09-22T10:13:47.215Z,2.30
2018-09-22T10:16:16.459Z,2.23
2018-09-22T10:18:45.588Z,2.20
2018-09-22T10:21:14.737Z,2.17
2018-09-22T10:23:43.904Z,2.07
2018-09-22T10:26:13.073Z,2.00
2018-09-22T10:28:48.257Z,1.80
2018-09-22T10:31:17.894Z,2.00
2018-09-22T10:33:47.195Z,2.33
2018-09-22T10:36:16.392Z,1.93
2018-09-22T10:38:45.876Z,2.17
2018-09-22T10:41:15.077Z,2.30
2018-09-22T10:43:44.356Z,2.40
2018-09-22T10:46:13.624Z,1.90
2018-09-22T10:48:42.860Z,2.10
2018-09-22T10:51:12.188Z,2.30
2018-09-22T10:53:41.373Z,1.92
2018-09-22T10:56:10.637Z,2.20
2018-09-22T10:58:39.873Z,1.93
2018-09-22T11:01:09.128Z,2.10
2018-09-22T11:03:38.438Z,2.50
2018-09-22T11:06:07.749Z,1.98
2018-09-22T11:08:36.996Z,2.40
2018-09-22T11:11:06.258Z,2.00
2018-09-22T11:13:36.008Z,1.95
2018-09-22T11:16:05.231Z,1.90
2018-09-22T11:18:34.436Z,2.07
2018-09-22T11:21:03.616Z,2.00
2018-09-22T11:23:32.938Z,2.10
2018-09-22T11:26:02.250Z,2.10
2018-09-22T11:28:31.928Z,2.03
2018-09-22T11:31:01.097Z,1.87
2018-09-22T11:33:30.299Z,1.73
2018-09-22T11:35:59.558Z,2.25
2018-09-22T11:38:28.808Z,2.02
2018-09-22T11:40:57.968Z,2.53
2018-09-22T11:43:28.305Z,3.23
2018-09-22T11:45:57.689Z,1.97
2018-09-22T11:48:26.949Z,1.90
2018-09-22T11:50:56.193Z,2.03
2018-09-22T11:53:25.390Z,2.00
2018-09-22T11:55:55.672Z,1.90
2018-09-22T11:58:25.421Z,1.73
2018-09-22T12:00:57.792Z,1.90
2018-09-22T12:03:27.080Z,3.13
2018-09-22T12:06:10.995Z,1.90
2018-09-22T12:08:40.361Z,2.00
2018-09-22T12:11:09.617Z,1.90
2018-09-22T12:13:47.850Z,1.83
2018-09-22T12:16:17.156Z,1.50
2018-09-22T12:18:46.406Z,1.90
2018-09-22T12:21:15.639Z,2.52
2018-09-22T12:23:45.131Z,2.47
2018-09-22T12:26:14.440Z,2.07
2018-09-22T12:28:46.426Z,2.37
2018-09-22T12:31:16.045Z,2.43
2018-09-22T12:33:45.786Z,2.07
2018-09-22T12:36:15.190Z,2.37
2018-09-22T12:38:44.646Z,2.40
2018-09-22T12:41:13.919Z,2.62
2018-09-22T12:43:43.328Z,2.00
2018-09-22T12:46:15.983Z,2.03
2018-09-22T12:48:45.762Z,2.07
2018-09-22T12:57:14.797Z,1.80
2018-09-22T12:59:44.162Z,2.20
2018-09-22T13:02:13.974Z,2.37
2018-09-22T13:04:43.385Z,2.60
2018-09-22T13:07:12.787Z,2.00
2018-09-22T13:09:41.961Z,1.98
2018-09-22T13:12:11.117Z,1.80
2018-09-22T13:14:42.505Z,1.60
2018-09-22T13:17:11.864Z,2.40
2018-09-22T13:19:41.092Z,1.87
2018-09-22T13:22:10.345Z,2.60
2018-09-22T13:24:39.548Z,2.13
2018-09-22T13:27:09.038Z,1.97
2018-09-22T13:29:38.450Z,1.80
2018-09-22T13:32:07.730Z,1.87
2018-09-22T13:34:36.992Z,2.27
2018-09-22T13:37:06.823Z,2.03
2018-09-22T13:39:36.100Z,2.12
2018-09-22T13:42:05.388Z,1.90
2018-09-22T13:44:34.601Z,2.27
2018-09-22T13:47:04.041Z,2.00
2018-09-22T13:49:33.410Z,2.40
2018-09-22T13:52:02.659Z,2.05
2018-09-22T13:54:32.651Z,2.27
2018-09-22T13:57:02.403Z,2.20
2018-09-22T13:59:32.563Z,3.17
2018-09-22T14:02:01.999Z,2.40
2018-09-22T14:04:31.539Z,2.63
2018-09-22T14:07:00.859Z,2.43
2018-09-22T14:09:30.156Z,2.47
2018-09-22T14:11:59.441Z,2.10
2018-09-22T14:14:47.541Z,2.37
2018-09-22T14:17:21.652Z,2.33
2018-09-22T14:19:52.753Z,2.30
2018-09-22T14:22:31.462Z,1.70
2018-09-22T14:25:01.340Z,1.97
2018-09-22T14:27:31.230Z,1.63
2018-09-22T14:30:01.495Z,1.87
2018-09-22T14:32:31.049Z,2.10
2018-09-22T14:35:00.318Z,2.30
2018-09-22T14:37:29.506Z,2.03
2018-09-22T14:39:59.754Z,1.80
2018-09-22T14:42:28.999Z,1.70
2018-09-22T14:44:58.255Z,2.10
2018-09-22T14:47:29.518Z,1.77
2018-09-22T14:49:58.813Z,2.10
2018-09-22T14:52:28.184Z,1.77
2018-09-22T14:54:58.369Z,2.10
2018-09-22T14:57:27.601Z,2.07
2018-09-22T14:59:56.767Z,2.50
2018-09-22T15:02:25.993Z,1.75
2018-09-22T15:04:55.171Z,2.03
2018-09-22T15:07:25.388Z,2.10
2018-09-22T15:09:54.554Z,1.97
2018-09-22T15:12:23.742Z,2.00
2018-09-22T15:14:53.009Z,2.35
2018-09-22T15:17:44.057Z,2.20
2018-09-22T15:20:24.042Z,2.70
2018-09-22T15:22:53.292Z,2.87
2018-09-22T15:25:22.522Z,2.27
2018-09-22T15:27:51.790Z,2.55
2018-09-22T15:30:21.017Z,2.30
2018-09-22T15:32:50.266Z,2.25
2018-09-22T15:35:19.529Z,3.20
2018-09-22T15:37:48.768Z,2.33
2018-09-22T15:40:17.931Z,3.40
2018-09-22T15:42:48.200Z,2.77
2018-09-22T15:45:17.465Z,2.50
2018-09-22T15:47:46.687Z,2.73
2018-09-22T15:50:17.949Z,2.97
2018-09-22T15:52:51.327Z,2.60
2018-09-22T15:55:20.588Z,2.23
2018-09-22T15:57:49.901Z,2.00
2018-09-22T16:00:19.075Z,2.30
2018-09-22T16:02:48.285Z,1.70
2018-09-22T16:05:17.708Z,1.70
2018-09-22T16:07:46.950Z,1.60
2018-09-22T16:10:16.210Z,1.80
2018-09-22T16:12:45.422Z,1.80
2018-09-22T16:15:14.948Z,1.70
2018-09-22T16:17:44.211Z,1.83
2018-09-22T16:20:13.464Z,1.90
2018-09-22T16:22:44.741Z,1.90
2018-09-22T16:25:13.938Z,1.93
2018-09-22T16:27:43.182Z,1.80
2018-09-22T16:30:12.410Z,2.12
2018-09-22T16:32:42.599Z,1.63
2018-09-22T16:35:12.009Z,2.83
2018-09-22T16:37:41.182Z,1.70
2018-09-22T16:40:10.339Z,1.75
2018-09-22T16:42:39.588Z,1.77
2018-09-22T16:45:08.785Z,1.63
2018-09-22T16:47:37.969Z,1.90
2018-09-22T16:50:07.420Z,1.90
2018-09-22T16:52:40.117Z,1.77
2018-09-22T16:55:09.439Z,1.67
2018-09-22T16:57:38.626Z,2.00
2018-09-22T17:00:08.081Z,2.13
2018-09-22T17:02:37.282Z,2.17
2018-09-22T17:05:06.589Z,2.47
2018-09-22T17:07:35.843Z,1.87
2018-09-22T17:10:05.320Z,2.30
2018-09-22T17:12:34.754Z,2.00
2018-09-22T17:15:04.389Z,2.10
2018-09-22T17:17:33.692Z,2.20
2018-09-22T17:20:02.909Z,2.33
2018-09-22T17:22:32.087Z,2.30
2018-09-22T17:25:01.460Z,2.27
2018-09-22T17:27:30.861Z,2.12
2018-09-22T17:29:59.949Z,2.47
2018-09-22T17:32:29.242Z,2.27
2018-09-22T17:34:58.515Z,2.40
2018-09-22T17:37:27.726Z,2.10
2018-09-22T17:39:56.973Z,2.50
2018-09-22T17:42:26.114Z,2.40
2018-09-22T17:44:55.369Z,2.30
2018-09-22T17:47:24.639Z,2.20
2018-09-22T17:49:53.849Z,3.23
2018-09-22T17:52:23.017Z,2.60
2018-09-22T17:54:52.199Z,2.10
2018-09-22T17:57:21.380Z,2.60
2018-09-22T17:59:50.611Z,1.80
2018-09-22T18:02:19.781Z,2.10
2018-09-22T18:04:48.947Z,1.90
2018-09-22T18:07:18.221Z,1.70
2018-09-22T18:09:48.001Z,1.83
2018-09-22T18:12:17.215Z,1.67
2018-09-22T18:14:46.392Z,1.63
2018-09-22T18:17:15.988Z,2.65
2018-09-22T18:21:43.923Z,2.00
2018-09-22T18:24:13.557Z,1.80
2018-09-22T18:26:42.772Z,1.83
2018-09-22T18:29:12.050Z,1.40
2018-09-22T18:31:41.276Z,1.60
2018-09-22T18:34:10.438Z,1.60
2018-09-22T18:36:39.581Z,1.70
2018-09-22T18:39:09.115Z,1.90
2018-09-22T18:41:38.583Z,1.67
2018-09-22T18:44:07.807Z,1.67
2018-09-22T18:46:37.787Z,1.70
2018-09-22T18:49:13.716Z,1.73
2018-09-22T18:51:44.161Z,1.70
2018-09-22T18:54:13.513Z,1.90
2018-09-22T18:56:42.829Z,1.90
2018-09-22T18:59:12.027Z,2.03
2018-09-22T19:01:41.207Z,2.00
2018-09-22T19:04:10.420Z,1.93
2018-09-22T19:06:39.756Z,1.80
2018-09-22T19:09:09.729Z,2.30
2018-09-22T19:11:38.984Z,2.40
2018-09-22T19:14:16.022Z,2.70
2018-09-22T19:16:56.032Z,2.83
2018-09-22T19:19:35.509Z,3.50
2018-09-22T19:22:07.656Z,4.00
2018-09-22T19:24:44.276Z,2.50
2018-09-22T19:27:17.161Z,3.05
2018-09-22T19:29:52.219Z,2.83
2018-09-22T19:32:26.128Z,2.90
2018-09-22T19:34:58.920Z,2.30
2018-09-22T19:37:32.923Z,2.63
2018-09-22T19:40:08.269Z,3.10
2018-09-22T19:42:42.980Z,2.80
2018-09-22T19:45:16.457Z,2.90
2018-09-22T19:47:54.232Z,2.90
2018-09-22T19:50:27.900Z,3.40
2018-09-22T19:52:57.230Z,3.20
2018-09-22T19:55:26.436Z,3.20
2018-09-22T19:57:55.582Z,3.55
2018-09-22T20:00:24.820Z,3.63
2018-09-22T20:02:54.005Z,3.77
2018-09-22T20:05:23.157Z,4.03
2018-09-22T20:07:52.326Z,4.07
2018-09-22T20:10:21.480Z,3.83
2018-09-22T20:12:50.765Z,3.60
2018-09-22T20:20:17.520Z,4.07
2018-09-22T20:22:46.857Z,4.03
2018-09-22T20:25:16.060Z,4.10
2018-09-22T20:27:45.238Z,4.07
2018-09-22T20:30:14.475Z,4.10
2018-09-22T20:32:43.647Z,4.00
2018-09-22T20:35:12.864Z,3.60
2018-09-22T20:37:42.065Z,3.62
2018-09-22T20:40:11.324Z,3.93
2018-09-22T20:42:40.558Z,3.73
2018-09-22T20:45:10.017Z,4.10
2018-09-22T20:47:39.365Z,4.10
2018-09-22T20:50:08.725Z,4.10
2018-09-22T20:52:38.032Z,4.60
2018-09-22T20:55:07.232Z,4.03
2018-09-22T20:57:36.542Z,3.97
2018-09-22T21:00:06.976Z,3.90
2018-09-22T21:02:36.446Z,3.65
2018-09-22T21:05:05.734Z,4.10
2018-09-22T21:07:35.266Z,7.23
2018-09-22T21:10:04.598Z,3.87
2018-09-22T21:12:33.993Z,3.60
2018-09-22T21:15:03.135Z,3.93
2018-09-22T21:17:32.380Z,4.15
2018-09-22T21:20:01.563Z,4.00
2018-09-22T21:22:30.755Z,3.73
2018-09-22T21:25:00.892Z,3.80
2018-09-22T21:27:30.024Z,3.63
2018-09-22T21:29:59.146Z,4.10
2018-09-22T21:32:28.419Z,3.67
2018-09-22T21:34:57.612Z,4.10
2018-09-22T21:37:26.744Z,4.13
2018-09-22T21:39:55.959Z,4.00
2018-09-22T21:42:25.119Z,4.07
2018-09-22T21:44:54.285Z,4.23
2018-09-22T21:47:23.499Z,4.50
2018-09-22T21:49:52.668Z,4.70
2018-09-22T21:52:21.926Z,4.50
2018-09-22T21:54:51.277Z,4.30
2018-09-22T21:57:20.341Z,4.67
2018-09-22T21:59:49.577Z,4.73
2018-09-22T22:02:18.728Z,4.60
2018-09-22T22:04:48.028Z,4.90
2018-09-22T22:07:17.732Z,5.20
2018-09-22T22:09:46.864Z,4.97
2018-09-22T22:12:16.001Z,4.70
2018-09-22T22:14:45.123Z,4.90
2018-09-22T22:17:14.512Z,6.00
2018-09-22T22:19:43.653Z,6.10
2018-09-22T22:22:12.807Z,5.70
2018-09-22T22:24:42.091Z,6.37
2018-09-22T22:27:11.279Z,6.27
2018-09-22T22:29:40.626Z,6.10
2018-09-22T22:32:09.783Z,7.00
2018-09-22T22:34:38.904Z,6.80
2018-09-22T22:37:08.165Z,6.80
2018-09-22T22:39:37.338Z,7.17
2018-09-22T22:42:06.529Z,7.33
2018-09-22T22:44:35.706Z,7.50
2018-09-22T22:47:04.840Z,7.23
2018-09-22T22:49:34.073Z,7.50
2018-09-22T22:52:03.217Z,7.43
2018-09-22T22:54:32.312Z,7.85
2018-09-22T22:57:01.425Z,7.50
2018-09-22T22:59:30.984Z,8.00
2018-09-22T23:02:00.149Z,8.43
2018-09-22T23:04:29.277Z,8.97
2018-09-22T23:06:58.452Z,8.40
2018-09-22T23:09:27.701Z,8.63
2018-09-22T23:11:56.864Z,9.00
2018-09-22T23:14:26.018Z,8.10
2018-09-22T23:16:55.164Z,8.83
2018-09-22T23:19:24.552Z,9.77
2018-09-22T23:21:53.714Z,9.77
2018-09-22T23:24:22.886Z,10.43
2018-09-22T23:26:52.203Z,9.68
2018-09-22T23:29:21.370Z,10.43
2018-09-22T23:31:50.632Z,11.70
2018-09-22T23:34:19.949Z,10.93
2018-09-22T23:36:49.850Z,10.98
2018-09-22T23:39:19.004Z,11.48
2018-09-22T23:41:48.265Z,11.27
2018-09-22T23:44:17.459Z,11.83
2018-09-22T23:46:46.604Z,12.57
2018-09-22T23:49:15.793Z,11.57
2018-09-22T23:51:44.952Z,11.50
2018-09-22T23:54:14.101Z,11.93
2018-09-22T23:56:43.329Z,11.60
2018-09-22T23:59:12.456Z,12.37
